Alma, Nebraska
Current Conditions -  °F | °C
As of 11:35 AM on Saturday 20 Dec 2014 (Local Time) from KHDE Reporting Station
Clear Clear  
Wind Chill: 31°   Ceiling: Unl
Heat Index: 35°   Visibility: 10mi
Dew Point: 28°   Wind: 5mph
Humidity: 77%   Direction: 220°SW
Pressure: 30.02"   Gusts: NA
Location:  40.1°N, 99.36°W
Report Text: KHDE 201735Z AUTO 22004KT 10SM CLR 02/M02 A3002 RMK AO2 T00161020
Loading
Personal Weather Stations






























Interactive Weather Map New forecast layout! Learn more

10-Day Weather Forecast

Advertisements
Track Severe Weather on mobile